sensor_id;sensor_type;location;lat;lon;timestamp;P1;durP1;ratioP1;P2;durP2;ratioP2
47239;SDS011;32978;53.586;10.052;2023-01-08T00:03:29;11.40;;;10.45;;
47239;SDS011;32978;53.586;10.052;2023-01-08T00:08:25;11.57;;;10.68;;
47239;SDS011;32978;53.586;10.052;2023-01-08T00:13:21;11.07;;;10.25;;
47239;SDS011;32978;53.586;10.052;2023-01-08T00:18:18;11.25;;;10.40;;
47239;SDS011;32978;53.586;10.052;2023-01-08T00:23:15;11.55;;;10.65;;
47239;SDS011;32978;53.586;10.052;2023-01-08T00:28:11;11.60;;;10.73;;
47239;SDS011;32978;53.586;10.052;2023-01-08T00:33:10;11.40;;;10.50;;
47239;SDS011;32978;53.586;10.052;2023-01-08T00:38:06;12.02;;;11.13;;
47239;SDS011;32978;53.586;10.052;2023-01-08T00:43:02;11.43;;;10.63;;
47239;SDS011;32978;53.586;10.052;2023-01-08T00:47:59;11.57;;;10.77;;
47239;SDS011;32978;53.586;10.052;2023-01-08T00:52:55;10.63;;;9.82;;
47239;SDS011;32978;53.586;10.052;2023-01-08T00:57:51;10.93;;;10.02;;
47239;SDS011;32978;53.586;10.052;2023-01-08T01:02:48;11.23;;;10.27;;
47239;SDS011;32978;53.586;10.052;2023-01-08T01:07:44;11.23;;;10.38;;
47239;SDS011;32978;53.586;10.052;2023-01-08T01:12:41;11.10;;;10.30;;
47239;SDS011;32978;53.586;10.052;2023-01-08T01:17:38;11.98;;;10.98;;
47239;SDS011;32978;53.586;10.052;2023-01-08T01:22:34;11.85;;;10.88;;
47239;SDS011;32978;53.586;10.052;2023-01-08T01:27:31;11.50;;;10.60;;
47239;SDS011;32978;53.586;10.052;2023-01-08T01:32:27;12.38;;;11.38;;
47239;SDS011;32978;53.586;10.052;2023-01-08T01:37:23;11.35;;;10.55;;
47239;SDS011;32978;53.586;10.052;2023-01-08T01:42:19;12.63;;;11.73;;
47239;SDS011;32978;53.586;10.052;2023-01-08T01:47:38;12.23;;;11.23;;
47239;SDS011;32978;53.586;10.052;2023-01-08T01:52:42;12.30;;;11.23;;
47239;SDS011;32978;53.586;10.052;2023-01-08T01:57:41;11.77;;;10.98;;
47239;SDS011;32978;53.586;10.052;2023-01-08T02:02:39;11.80;;;11.00;;
47239;SDS011;32978;53.586;10.052;2023-01-08T02:12:35;11.65;;;10.85;;
47239;SDS011;32978;53.586;10.052;2023-01-08T02:22:53;11.75;;;10.90;;
47239;SDS011;32978;53.586;10.052;2023-01-08T02:27:50;12.95;;;11.85;;
47239;SDS011;32978;53.586;10.052;2023-01-08T02:32:48;12.68;;;11.75;;
47239;SDS011;32978;53.586;10.052;2023-01-08T02:37:45;13.18;;;12.23;;
47239;SDS011;32978;53.586;10.052;2023-01-08T02:42:44;12.52;;;11.63;;
47239;SDS011;32978;53.586;10.052;2023-01-08T02:58:06;12.35;;;11.55;;
47239;SDS011;32978;53.586;10.052;2023-01-08T03:03:08;11.77;;;10.80;;
47239;SDS011;32978;53.586;10.052;2023-01-08T03:08:04;11.77;;;10.88;;
47239;SDS011;32978;53.586;10.052;2023-01-08T03:13:02;11.68;;;10.88;;
47239;SDS011;32978;53.586;10.052;2023-01-08T03:18:01;12.55;;;11.65;;
47239;SDS011;32978;53.586;10.052;2023-01-08T03:23:00;11.93;;;11.02;;
47239;SDS011;32978;53.586;10.052;2023-01-08T03:27:58;12.10;;;11.00;;
47239;SDS011;32978;53.586;10.052;2023-01-08T03:32:57;11.80;;;10.95;;
47239;SDS011;32978;53.586;10.052;2023-01-08T03:38:00;11.73;;;10.73;;
47239;SDS011;32978;53.586;10.052;2023-01-08T03:42:58;12.27;;;11.48;;
47239;SDS011;32978;53.586;10.052;2023-01-08T03:47:54;12.55;;;11.65;;
47239;SDS011;32978;53.586;10.052;2023-01-08T03:52:52;13.40;;;12.50;;
47239;SDS011;32978;53.586;10.052;2023-01-08T03:57:48;12.85;;;11.95;;
47239;SDS011;32978;53.586;10.052;2023-01-08T04:02:44;11.90;;;10.85;;
47239;SDS011;32978;53.586;10.052;2023-01-08T04:07:40;12.90;;;11.90;;
47239;SDS011;32978;53.586;10.052;2023-01-08T04:12:37;13.25;;;11.88;;
47239;SDS011;32978;53.586;10.052;2023-01-08T04:17:33;12.25;;;11.35;;
47239;SDS011;32978;53.586;10.052;2023-01-08T04:22:29;12.43;;;11.55;;
47239;SDS011;32978;53.586;10.052;2023-01-08T04:27:25;12.40;;;11.50;;
47239;SDS011;32978;53.586;10.052;2023-01-08T04:32:22;12.80;;;11.90;;
47239;SDS011;32978;53.586;10.052;2023-01-08T04:37:18;12.57;;;11.68;;
47239;SDS011;32978;53.586;10.052;2023-01-08T04:42:14;11.98;;;11.07;;
47239;SDS011;32978;53.586;10.052;2023-01-08T04:47:11;11.85;;;11.02;;
47239;SDS011;32978;53.586;10.052;2023-01-08T04:52:07;12.13;;;11.15;;
47239;SDS011;32978;53.586;10.052;2023-01-08T04:57:03;12.10;;;11.27;;
47239;SDS011;32978;53.586;10.052;2023-01-08T05:02:00;12.45;;;11.45;;
47239;SDS011;32978;53.586;10.052;2023-01-08T05:06:56;11.63;;;10.82;;
47239;SDS011;32978;53.586;10.052;2023-01-08T05:11:53;12.73;;;11.73;;
47239;SDS011;32978;53.586;10.052;2023-01-08T05:16:49;12.98;;;11.98;;
47239;SDS011;32978;53.586;10.052;2023-01-08T05:21:45;12.52;;;11.57;;
47239;SDS011;32978;53.586;10.052;2023-01-08T05:26:41;12.75;;;11.60;;
47239;SDS011;32978;53.586;10.052;2023-01-08T05:31:38;12.82;;;11.82;;
47239;SDS011;32978;53.586;10.052;2023-01-08T05:36:34;13.93;;;12.73;;
47239;SDS011;32978;53.586;10.052;2023-01-08T05:41:30;13.35;;;12.25;;
47239;SDS011;32978;53.586;10.052;2023-01-08T05:46:26;12.90;;;11.85;;
47239;SDS011;32978;53.586;10.052;2023-01-08T05:51:22;14.70;;;13.55;;
47239;SDS011;32978;53.586;10.052;2023-01-08T05:56:19;14.13;;;13.15;;
47239;SDS011;32978;53.586;10.052;2023-01-08T06:01:15;13.68;;;12.38;;
47239;SDS011;32978;53.586;10.052;2023-01-08T06:06:11;13.90;;;12.95;;
47239;SDS011;32978;53.586;10.052;2023-01-08T06:11:09;13.70;;;12.80;;
47239;SDS011;32978;53.586;10.052;2023-01-08T06:16:06;13.73;;;12.73;;
47239;SDS011;32978;53.586;10.052;2023-01-08T06:21:03;13.95;;;12.98;;
47239;SDS011;32978;53.586;10.052;2023-01-08T06:26:00;14.68;;;13.77;;
47239;SDS011;32978;53.586;10.052;2023-01-08T06:30:57;15.00;;;13.88;;
47239;SDS011;32978;53.586;10.052;2023-01-08T06:35:54;14.88;;;13.85;;
47239;SDS011;32978;53.586;10.052;2023-01-08T06:40:50;15.38;;;14.38;;
47239;SDS011;32978;53.586;10.052;2023-01-08T06:45:53;16.38;;;15.27;;
47239;SDS011;32978;53.586;10.052;2023-01-08T06:50:50;15.75;;;14.75;;
47239;SDS011;32978;53.586;10.052;2023-01-08T06:55:46;15.75;;;14.65;;
47239;SDS011;32978;53.586;10.052;2023-01-08T07:00:43;16.02;;;14.93;;
47239;SDS011;32978;53.586;10.052;2023-01-08T07:05:39;15.68;;;14.68;;
47239;SDS011;32978;53.586;10.052;2023-01-08T07:10:35;14.95;;;13.90;;
47239;SDS011;32978;53.586;10.052;2023-01-08T07:15:32;17.42;;;16.23;;
47239;SDS011;32978;53.586;10.052;2023-01-08T07:20:28;16.92;;;15.82;;
47239;SDS011;32978;53.586;10.052;2023-01-08T07:25:24;16.48;;;15.48;;
47239;SDS011;32978;53.586;10.052;2023-01-08T07:30:21;16.92;;;15.75;;
47239;SDS011;32978;53.586;10.052;2023-01-08T07:35:25;16.48;;;15.35;;
47239;SDS011;32978;53.586;10.052;2023-01-08T07:40:22;17.40;;;16.15;;
47239;SDS011;32978;53.586;10.052;2023-01-08T07:45:18;17.55;;;16.20;;
47239;SDS011;32978;53.586;10.052;2023-01-08T07:50:15;16.17;;;15.18;;
47239;SDS011;32978;53.586;10.052;2023-01-08T07:55:11;17.13;;;16.02;;
47239;SDS011;32978;53.586;10.052;2023-01-08T08:00:07;17.73;;;16.52;;
47239;SDS011;32978;53.586;10.052;2023-01-08T08:05:04;16.60;;;15.52;;
47239;SDS011;32978;53.586;10.052;2023-01-08T08:10:03;17.88;;;16.73;;
47239;SDS011;32978;53.586;10.052;2023-01-08T08:14:59;18.35;;;17.20;;
47239;SDS011;32978;53.586;10.052;2023-01-08T08:19:55;19.05;;;17.85;;
47239;SDS011;32978;53.586;10.052;2023-01-08T08:24:51;21.38;;;20.08;;
47239;SDS011;32978;53.586;10.052;2023-01-08T08:29:48;22.75;;;21.50;;
47239;SDS011;32978;53.586;10.052;2023-01-08T08:34:44;25.98;;;24.17;;
47239;SDS011;32978;53.586;10.052;2023-01-08T08:39:40;27.52;;;25.83;;
47239;SDS011;32978;53.586;10.052;2023-01-08T08:44:36;28.33;;;26.52;;
47239;SDS011;32978;53.586;10.052;2023-01-08T08:49:33;31.02;;;29.15;;
47239;SDS011;32978;53.586;10.052;2023-01-08T08:54:29;31.48;;;29.67;;
47239;SDS011;32978;53.586;10.052;2023-01-08T08:59:25;32.00;;;30.10;;
47239;SDS011;32978;53.586;10.052;2023-01-08T09:04:22;32.30;;;30.25;;
47239;SDS011;32978;53.586;10.052;2023-01-08T09:09:18;30.67;;;28.70;;
47239;SDS011;32978;53.586;10.052;2023-01-08T09:14:14;31.90;;;30.10;;
47239;SDS011;32978;53.586;10.052;2023-01-08T09:19:11;33.25;;;30.95;;
47239;SDS011;32978;53.586;10.052;2023-01-08T09:24:07;31.65;;;29.85;;
47239;SDS011;32978;53.586;10.052;2023-01-08T09:29:04;30.77;;;28.88;;
47239;SDS011;32978;53.586;10.052;2023-01-08T09:34:00;29.75;;;27.95;;
47239;SDS011;32978;53.586;10.052;2023-01-08T09:38:56;28.85;;;26.92;;
47239;SDS011;32978;53.586;10.052;2023-01-08T09:43:53;31.38;;;29.38;;
47239;SDS011;32978;53.586;10.052;2023-01-08T09:48:50;29.48;;;27.67;;
47239;SDS011;32978;53.586;10.052;2023-01-08T09:53:54;29.80;;;28.10;;
47239;SDS011;32978;53.586;10.052;2023-01-08T09:58:54;28.95;;;27.15;;
47239;SDS011;32978;53.586;10.052;2023-01-08T10:03:53;28.27;;;26.58;;
47239;SDS011;32978;53.586;10.052;2023-01-08T10:08:50;29.30;;;27.60;;
47239;SDS011;32978;53.586;10.052;2023-01-08T10:13:49;26.27;;;24.77;;
47239;SDS011;32978;53.586;10.052;2023-01-08T10:18:47;26.13;;;24.42;;
47239;SDS011;32978;53.586;10.052;2023-01-08T10:23:50;26.30;;;24.80;;
47239;SDS011;32978;53.586;10.052;2023-01-08T10:28:47;28.15;;;26.35;;
47239;SDS011;32978;53.586;10.052;2023-01-08T10:33:44;28.00;;;26.40;;
47239;SDS011;32978;53.586;10.052;2023-01-08T10:48:46;25.35;;;23.75;;
47239;SDS011;32978;53.586;10.052;2023-01-08T10:53:43;25.77;;;24.25;;
47239;SDS011;32978;53.586;10.052;2023-01-08T10:58:40;27.88;;;26.17;;
47239;SDS011;32978;53.586;10.052;2023-01-08T11:03:36;27.40;;;25.70;;
47239;SDS011;32978;53.586;10.052;2023-01-08T11:08:33;25.92;;;24.42;;
47239;SDS011;32978;53.586;10.052;2023-01-08T11:13:29;26.83;;;25.08;;
47239;SDS011;32978;53.586;10.052;2023-01-08T11:18:25;28.42;;;26.80;;
47239;SDS011;32978;53.586;10.052;2023-01-08T11:23:24;30.92;;;29.13;;
47239;SDS011;32978;53.586;10.052;2023-01-08T11:28:42;32.25;;;29.92;;
47239;SDS011;32978;53.586;10.052;2023-01-08T11:33:37;33.15;;;31.05;;
47239;SDS011;32978;53.586;10.052;2023-01-08T11:38:34;30.63;;;28.75;;
47239;SDS011;32978;53.586;10.052;2023-01-08T11:48:46;29.25;;;27.35;;
47239;SDS011;32978;53.586;10.052;2023-01-08T11:53:45;28.52;;;26.77;;
47239;SDS011;32978;53.586;10.052;2023-01-08T11:59:30;22.73;;;21.23;;
47239;SDS011;32978;53.586;10.052;2023-01-08T12:34:49;8.15;;;7.40;;
47239;SDS011;32978;53.586;10.052;2023-01-08T12:39:49;8.35;;;7.65;;
47239;SDS011;32978;53.586;10.052;2023-01-08T12:44:46;8.70;;;8.00;;
47239;SDS011;32978;53.586;10.052;2023-01-08T12:49:45;9.32;;;8.65;;
47239;SDS011;32978;53.586;10.052;2023-01-08T12:54:50;10.75;;;9.93;;
47239;SDS011;32978;53.586;10.052;2023-01-08T13:10:22;11.05;;;10.25;;
47239;SDS011;32978;53.586;10.052;2023-01-08T13:15:19;12.48;;;11.48;;
47239;SDS011;32978;53.586;10.052;2023-01-08T13:20:19;11.25;;;10.45;;
47239;SDS011;32978;53.586;10.052;2023-01-08T13:35:28;9.57;;;8.82;;
47239;SDS011;32978;53.586;10.052;2023-01-08T13:40:48;10.55;;;9.77;;
47239;SDS011;32978;53.586;10.052;2023-01-08T13:50:54;9.52;;;8.82;;
47239;SDS011;32978;53.586;10.052;2023-01-08T13:55:53;9.73;;;8.98;;
47239;SDS011;32978;53.586;10.052;2023-01-08T14:00:51;9.40;;;8.70;;
47239;SDS011;32978;53.586;10.052;2023-01-08T14:05:48;9.75;;;9.15;;
47239;SDS011;32978;53.586;10.052;2023-01-08T14:10:46;10.07;;;9.38;;
47239;SDS011;32978;53.586;10.052;2023-01-08T14:15:42;9.75;;;8.85;;
47239;SDS011;32978;53.586;10.052;2023-01-08T14:20:39;9.25;;;8.55;;
47239;SDS011;32978;53.586;10.052;2023-01-08T14:25:36;8.90;;;7.70;;
47239;SDS011;32978;53.586;10.052;2023-01-08T14:30:33;11.32;;;8.15;;
47239;SDS011;32978;53.586;10.052;2023-01-08T14:35:31;7.43;;;6.65;;
47239;SDS011;32978;53.586;10.052;2023-01-08T14:40:33;9.20;;;7.05;;
47239;SDS011;32978;53.586;10.052;2023-01-08T14:45:30;10.88;;;7.68;;
47239;SDS011;32978;53.586;10.052;2023-01-08T14:50:28;9.98;;;7.68;;
47239;SDS011;32978;53.586;10.052;2023-01-08T14:55:24;9.85;;;8.82;;
47239;SDS011;32978;53.586;10.052;2023-01-08T15:00:25;13.38;;;8.10;;
47239;SDS011;32978;53.586;10.052;2023-01-08T15:05:25;8.05;;;7.30;;
47239;SDS011;32978;53.586;10.052;2023-01-08T15:10:32;8.07;;;7.32;;
47239;SDS011;32978;53.586;10.052;2023-01-08T15:15:28;10.15;;;7.97;;
47239;SDS011;32978;53.586;10.052;2023-01-08T15:20:29;9.50;;;7.45;;
47239;SDS011;32978;53.586;10.052;2023-01-08T15:25:27;9.68;;;8.10;;
47239;SDS011;32978;53.586;10.052;2023-01-08T15:30:25;12.00;;;8.50;;
47239;SDS011;32978;53.586;10.052;2023-01-08T15:35:23;8.90;;;7.97;;
47239;SDS011;32978;53.586;10.052;2023-01-08T15:40:21;8.95;;;8.25;;
47239;SDS011;32978;53.586;10.052;2023-01-08T15:45:18;11.38;;;10.20;;
47239;SDS011;32978;53.586;10.052;2023-01-08T15:50:15;11.90;;;9.27;;
47239;SDS011;32978;53.586;10.052;2023-01-08T15:55:15;10.68;;;9.70;;
47239;SDS011;32978;53.586;10.052;2023-01-08T16:00:13;12.15;;;10.13;;
47239;SDS011;32978;53.586;10.052;2023-01-08T16:05:09;13.07;;;11.90;;
47239;SDS011;32978;53.586;10.052;2023-01-08T16:10:06;12.93;;;11.70;;
47239;SDS011;32978;53.586;10.052;2023-01-08T16:15:04;13.55;;;12.15;;
47239;SDS011;32978;53.586;10.052;2023-01-08T16:20:03;12.18;;;11.18;;
47239;SDS011;32978;53.586;10.052;2023-01-08T16:25:00;15.50;;;12.32;;
47239;SDS011;32978;53.586;10.052;2023-01-08T16:29:56;15.50;;;13.15;;
47239;SDS011;32978;53.586;10.052;2023-01-08T16:34:53;14.88;;;13.30;;
47239;SDS011;32978;53.586;10.052;2023-01-08T16:39:50;16.92;;;13.02;;
47239;SDS011;32978;53.586;10.052;2023-01-08T16:44:46;14.55;;;13.05;;
47239;SDS011;32978;53.586;10.052;2023-01-08T16:49:42;15.23;;;13.70;;
47239;SDS011;32978;53.586;10.052;2023-01-08T16:54:39;15.05;;;13.63;;
47239;SDS011;32978;53.586;10.052;2023-01-08T16:59:35;14.73;;;13.27;;
47239;SDS011;32978;53.586;10.052;2023-01-08T17:04:31;21.13;;;14.00;;
47239;SDS011;32978;53.586;10.052;2023-01-08T17:09:28;16.17;;;13.65;;
47239;SDS011;32978;53.586;10.052;2023-01-08T17:14:24;15.55;;;14.10;;
47239;SDS011;32978;53.586;10.052;2023-01-08T17:19:20;15.15;;;13.48;;
47239;SDS011;32978;53.586;10.052;2023-01-08T17:24:17;14.48;;;13.25;;
47239;SDS011;32978;53.586;10.052;2023-01-08T17:29:13;15.00;;;13.60;;
47239;SDS011;32978;53.586;10.052;2023-01-08T17:34:11;15.02;;;13.93;;
47239;SDS011;32978;53.586;10.052;2023-01-08T17:39:08;16.20;;;14.80;;
47239;SDS011;32978;53.586;10.052;2023-01-08T17:44:05;16.98;;;15.32;;
47239;SDS011;32978;53.586;10.052;2023-01-08T17:49:02;17.75;;;16.55;;
47239;SDS011;32978;53.586;10.052;2023-01-08T17:53:59;19.20;;;17.90;;
47239;SDS011;32978;53.586;10.052;2023-01-08T17:58:56;19.83;;;18.42;;
47239;SDS011;32978;53.586;10.052;2023-01-08T18:03:52;22.02;;;20.23;;
47239;SDS011;32978;53.586;10.052;2023-01-08T18:08:48;20.20;;;18.48;;
47239;SDS011;32978;53.586;10.052;2023-01-08T18:13:45;18.23;;;17.13;;
47239;SDS011;32978;53.586;10.052;2023-01-08T18:18:41;15.70;;;14.80;;
47239;SDS011;32978;53.586;10.052;2023-01-08T18:23:37;15.95;;;14.75;;
47239;SDS011;32978;53.586;10.052;2023-01-08T18:28:34;15.82;;;14.82;;
47239;SDS011;32978;53.586;10.052;2023-01-08T18:33:31;16.70;;;15.40;;
47239;SDS011;32978;53.586;10.052;2023-01-08T18:38:27;15.20;;;14.20;;
47239;SDS011;32978;53.586;10.052;2023-01-08T18:43:24;16.42;;;15.35;;
47239;SDS011;32978;53.586;10.052;2023-01-08T18:48:20;17.45;;;16.15;;
47239;SDS011;32978;53.586;10.052;2023-01-08T18:53:17;17.80;;;16.50;;
47239;SDS011;32978;53.586;10.052;2023-01-08T18:58:13;18.63;;;17.23;;
47239;SDS011;32978;53.586;10.052;2023-01-08T19:03:09;20.13;;;18.70;;
47239;SDS011;32978;53.586;10.052;2023-01-08T19:08:07;19.38;;;18.17;;
47239;SDS011;32978;53.586;10.052;2023-01-08T19:13:03;22.02;;;20.63;;
47239;SDS011;32978;53.586;10.052;2023-01-08T19:18:00;21.48;;;20.08;;
47239;SDS011;32978;53.586;10.052;2023-01-08T19:22:56;22.05;;;20.60;;
47239;SDS011;32978;53.586;10.052;2023-01-08T19:27:52;22.65;;;21.33;;
47239;SDS011;32978;53.586;10.052;2023-01-08T19:32:49;22.63;;;21.10;;
47239;SDS011;32978;53.586;10.052;2023-01-08T19:37:45;23.58;;;22.17;;
47239;SDS011;32978;53.586;10.052;2023-01-08T19:42:41;23.73;;;22.42;;
47239;SDS011;32978;53.586;10.052;2023-01-08T19:47:56;26.52;;;24.83;;
47239;SDS011;32978;53.586;10.052;2023-01-08T19:52:53;25.73;;;24.15;;
47239;SDS011;32978;53.586;10.052;2023-01-08T19:57:51;27.75;;;25.92;;
47239;SDS011;32978;53.586;10.052;2023-01-08T20:02:49;27.23;;;25.52;;
47239;SDS011;32978;53.586;10.052;2023-01-08T20:07:46;30.40;;;28.35;;
47239;SDS011;32978;53.586;10.052;2023-01-08T20:12:46;30.25;;;28.45;;
47239;SDS011;32978;53.586;10.052;2023-01-08T20:17:43;31.10;;;29.10;;
47239;SDS011;32978;53.586;10.052;2023-01-08T20:22:39;29.80;;;27.88;;
47239;SDS011;32978;53.586;10.052;2023-01-08T20:27:36;29.90;;;27.95;;
47239;SDS011;32978;53.586;10.052;2023-01-08T20:32:32;29.45;;;27.65;;
47239;SDS011;32978;53.586;10.052;2023-01-08T20:37:29;27.48;;;25.88;;
47239;SDS011;32978;53.586;10.052;2023-01-08T20:42:25;27.88;;;26.08;;
47239;SDS011;32978;53.586;10.052;2023-01-08T20:47:29;28.98;;;27.08;;
47239;SDS011;32978;53.586;10.052;2023-01-08T20:52:27;30.67;;;28.95;;
47239;SDS011;32978;53.586;10.052;2023-01-08T20:57:24;32.05;;;30.05;;
47239;SDS011;32978;53.586;10.052;2023-01-08T21:02:20;30.45;;;28.50;;
47239;SDS011;32978;53.586;10.052;2023-01-08T21:07:17;32.97;;;31.02;;
47239;SDS011;32978;53.586;10.052;2023-01-08T21:12:13;31.65;;;29.85;;
47239;SDS011;32978;53.586;10.052;2023-01-08T21:17:10;32.55;;;30.73;;
47239;SDS011;32978;53.586;10.052;2023-01-08T21:22:06;35.65;;;33.35;;
47239;SDS011;32978;53.586;10.052;2023-01-08T21:27:03;36.72;;;34.45;;
47239;SDS011;32978;53.586;10.052;2023-01-08T21:31:59;42.45;;;40.03;;
47239;SDS011;32978;53.586;10.052;2023-01-08T21:36:55;41.70;;;39.20;;
47239;SDS011;32978;53.586;10.052;2023-01-08T21:41:52;39.95;;;37.63;;
47239;SDS011;32978;53.586;10.052;2023-01-08T21:47:08;45.45;;;42.95;;
47239;SDS011;32978;53.586;10.052;2023-01-08T21:52:05;43.60;;;40.92;;
47239;SDS011;32978;53.586;10.052;2023-01-08T21:57:20;44.70;;;42.10;;
47239;SDS011;32978;53.586;10.052;2023-01-08T22:02:17;46.38;;;43.80;;
47239;SDS011;32978;53.586;10.052;2023-01-08T22:07:14;46.97;;;44.38;;
47239;SDS011;32978;53.586;10.052;2023-01-08T22:12:11;45.63;;;43.03;;
47239;SDS011;32978;53.586;10.052;2023-01-08T22:17:09;48.25;;;45.65;;
47239;SDS011;32978;53.586;10.052;2023-01-08T22:22:05;47.70;;;44.72;;
47239;SDS011;32978;53.586;10.052;2023-01-08T22:27:08;45.80;;;43.28;;
47239;SDS011;32978;53.586;10.052;2023-01-08T22:32:05;42.15;;;39.78;;
47239;SDS011;32978;53.586;10.052;2023-01-08T22:37:01;42.28;;;39.97;;
47239;SDS011;32978;53.586;10.052;2023-01-08T22:41:57;43.38;;;40.97;;
47239;SDS011;32978;53.586;10.052;2023-01-08T22:46:54;46.88;;;44.17;;
47239;SDS011;32978;53.586;10.052;2023-01-08T22:51:51;52.35;;;49.38;;
47239;SDS011;32978;53.586;10.052;2023-01-08T22:56:47;54.83;;;51.88;;
47239;SDS011;32978;53.586;10.052;2023-01-08T23:01:43;55.47;;;52.38;;
47239;SDS011;32978;53.586;10.052;2023-01-08T23:06:40;56.67;;;53.58;;
47239;SDS011;32978;53.586;10.052;2023-01-08T23:11:36;61.63;;;58.33;;
47239;SDS011;32978;53.586;10.052;2023-01-08T23:16:33;63.42;;;60.03;;
47239;SDS011;32978;53.586;10.052;2023-01-08T23:21:29;63.90;;;60.40;;
47239;SDS011;32978;53.586;10.052;2023-01-08T23:26:27;66.07;;;62.50;;
47239;SDS011;32978;53.586;10.052;2023-01-08T23:31:25;66.07;;;62.53;;
47239;SDS011;32978;53.586;10.052;2023-01-08T23:36:22;65.25;;;61.80;;
47239;SDS011;32978;53.586;10.052;2023-01-08T23:41:19;67.60;;;64.07;;
47239;SDS011;32978;53.586;10.052;2023-01-08T23:46:16;66.72;;;63.20;;
47239;SDS011;32978;53.586;10.052;2023-01-08T23:51:12;70.30;;;66.50;;
47239;SDS011;32978;53.586;10.052;2023-01-08T23:56:08;67.93;;;64.40;;
